Airfield :
LOGIN :

Register | Disclaimer

   EN    FR    IT 

 










Legend :    VFR   Marginal VFR   IFR   Intensive IFR   Very Intensive IFR
Visi :
Ceiling :
>= 8 km
>= 3000ft
5 to 8 km
1000 to 3000 ft
1500m to 5 km
500 to 1000 ft
800 to 1500m
200 to 500 ft
< 800m
< 200 ft
Symbols :   Thunderstorms  Fog  Heavy snow  Heavy precipitations  Wind > 20 kt
SIGMETs :     Misc.  Thunderstorms  Icing  Turbulence  Mountain Waves  Volcanic Ashes






- Airport Elevation : 2031 ft


LEGT - Madrid Getafe

CURRENT METAR :
  • 280500Z AUTO 18005KT CAVOK 00/M04 Q1021

EXPIRED METARs :
  • 280430Z AUTO 16004KT 110V240 CAVOK 00/M04 Q1021
  • 280400Z AUTO 25006KT CAVOK 01/M03 Q1021
  • 280330Z AUTO 26003KT CAVOK 01/M04 Q1021
  • 280300Z AUTO 23004KT CAVOK 01/M04 Q1021
  • 280230Z AUTO 24002KT CAVOK 01/M04 Q1021
  • 280200Z AUTO 19003KT 160V310 CAVOK 01/M03 Q1021
  • 280130Z AUTO VRB02KT CAVOK 02/M04 Q1021
  • 280100Z AUTO 17003KT 140V230 CAVOK 02/M04 Q1021
  • 280030Z AUTO 25006KT CAVOK 03/M04 Q1022

TAF TAF LEGT
Valid from the 28 at 00:00 until the 29 at 00:00 UTC


272300Z 2800/2824 01014KT CAVOK TX13/2815Z TN02/2806Z
TEMPO 2800/2810 VRB05KT
PROB40
TEMPO 2810/2818 01016G26KT
BECMG 2819/2821 VRB05KT



MET'MAP, your aeronautical weather chart ! - Copyright ORBIFLY December 2007 - Disclaimer

ORBIFLY MET'MAP TEAM :

Programming & Development : Alexandra Zaïnal
Original concept : Baudouin d'Aumeries
Technical & hardware support : Manuel Goepfert
Assistance : Marc-Olivier Méhu




SOURCES & CREDITS :

   NOAA